sensor_id;sensor_type;location;lat;lon;timestamp;P1;durP1;ratioP1;P2;durP2;ratioP2
11048;SDS011;5577;42.706;23.160;2023-05-15T00:00:18;19.80;;;16.63;;
11048;SDS011;5577;42.706;23.160;2023-05-15T00:03:02;22.20;;;16.57;;
11048;SDS011;5577;42.706;23.160;2023-05-15T00:05:46;20.73;;;16.63;;
11048;SDS011;5577;42.706;23.160;2023-05-15T00:08:30;20.73;;;17.07;;
11048;SDS011;5577;42.706;23.160;2023-05-15T00:11:14;21.87;;;16.40;;
11048;SDS011;5577;42.706;23.160;2023-05-15T00:13:58;23.13;;;17.17;;
11048;SDS011;5577;42.706;23.160;2023-05-15T00:16:42;21.80;;;17.23;;
11048;SDS011;5577;42.706;23.160;2023-05-15T00:19:26;21.30;;;16.60;;
11048;SDS011;5577;42.706;23.160;2023-05-15T00:22:10;21.83;;;16.80;;
11048;SDS011;5577;42.706;23.160;2023-05-15T00:24:54;21.40;;;17.43;;
11048;SDS011;5577;42.706;23.160;2023-05-15T00:27:37;22.60;;;18.03;;
11048;SDS011;5577;42.706;23.160;2023-05-15T00:30:21;23.43;;;17.43;;
11048;SDS011;5577;42.706;23.160;2023-05-15T00:33:05;24.83;;;18.33;;
11048;SDS011;5577;42.706;23.160;2023-05-15T00:35:49;21.83;;;16.83;;
11048;SDS011;5577;42.706;23.160;2023-05-15T00:38:33;22.40;;;17.33;;
11048;SDS011;5577;42.706;23.160;2023-05-15T00:41:18;23.40;;;17.13;;
11048;SDS011;5577;42.706;23.160;2023-05-15T00:44:04;19.93;;;16.27;;
11048;SDS011;5577;42.706;23.160;2023-05-15T00:46:49;22.37;;;16.40;;
11048;SDS011;5577;42.706;23.160;2023-05-15T00:49:34;20.07;;;16.03;;
11048;SDS011;5577;42.706;23.160;2023-05-15T00:52:19;21.13;;;16.53;;
11048;SDS011;5577;42.706;23.160;2023-05-15T00:55:04;20.37;;;16.47;;
11048;SDS011;5577;42.706;23.160;2023-05-15T00:57:47;20.90;;;16.40;;
11048;SDS011;5577;42.706;23.160;2023-05-15T01:00:31;20.67;;;16.83;;
11048;SDS011;5577;42.706;23.160;2023-05-15T01:03:16;22.87;;;17.63;;
11048;SDS011;5577;42.706;23.160;2023-05-15T01:06:00;21.63;;;16.20;;
11048;SDS011;5577;42.706;23.160;2023-05-15T01:08:45;19.83;;;16.03;;
11048;SDS011;5577;42.706;23.160;2023-05-15T01:11:29;21.83;;;16.87;;
11048;SDS011;5577;42.706;23.160;2023-05-15T01:14:18;22.93;;;16.80;;
11048;SDS011;5577;42.706;23.160;2023-05-15T01:17:02;23.23;;;17.47;;
11048;SDS011;5577;42.706;23.160;2023-05-15T01:19:46;22.37;;;17.27;;
11048;SDS011;5577;42.706;23.160;2023-05-15T01:25:49;23.07;;;18.23;;
11048;SDS011;5577;42.706;23.160;2023-05-15T01:28:41;24.63;;;18.13;;
11048;SDS011;5577;42.706;23.160;2023-05-15T01:31:27;21.43;;;17.17;;
11048;SDS011;5577;42.706;23.160;2023-05-15T01:34:13;22.63;;;17.53;;
11048;SDS011;5577;42.706;23.160;2023-05-15T01:37:01;23.00;;;17.60;;
11048;SDS011;5577;42.706;23.160;2023-05-15T01:39:46;22.70;;;17.20;;
11048;SDS011;5577;42.706;23.160;2023-05-15T01:42:33;22.00;;;17.23;;
11048;SDS011;5577;42.706;23.160;2023-05-15T01:45:17;22.47;;;15.50;;
11048;SDS011;5577;42.706;23.160;2023-05-15T01:48:01;23.00;;;16.33;;
11048;SDS011;5577;42.706;23.160;2023-05-15T01:50:48;21.53;;;17.43;;
11048;SDS011;5577;42.706;23.160;2023-05-15T01:53:33;23.87;;;18.67;;
11048;SDS011;5577;42.706;23.160;2023-05-15T01:56:18;23.40;;;17.57;;
11048;SDS011;5577;42.706;23.160;2023-05-15T01:59:03;22.23;;;17.60;;
11048;SDS011;5577;42.706;23.160;2023-05-15T02:01:47;26.37;;;17.90;;
11048;SDS011;5577;42.706;23.160;2023-05-15T02:04:31;24.87;;;18.30;;
11048;SDS011;5577;42.706;23.160;2023-05-15T02:07:15;24.20;;;18.27;;
11048;SDS011;5577;42.706;23.160;2023-05-15T02:09:59;27.27;;;19.43;;
11048;SDS011;5577;42.706;23.160;2023-05-15T02:12:44;28.07;;;20.00;;
11048;SDS011;5577;42.706;23.160;2023-05-15T02:15:29;27.83;;;20.20;;
11048;SDS011;5577;42.706;23.160;2023-05-15T02:18:13;28.07;;;20.23;;
11048;SDS011;5577;42.706;23.160;2023-05-15T02:20:57;31.67;;;20.50;;
11048;SDS011;5577;42.706;23.160;2023-05-15T02:23:43;29.10;;;20.13;;
11048;SDS011;5577;42.706;23.160;2023-05-15T02:26:35;28.40;;;19.47;;
11048;SDS011;5577;42.706;23.160;2023-05-15T02:38:05;29.27;;;20.47;;
11048;SDS011;5577;42.706;23.160;2023-05-15T02:40:50;29.87;;;20.27;;
11048;SDS011;5577;42.706;23.160;2023-05-15T02:43:35;32.47;;;20.33;;
11048;SDS011;5577;42.706;23.160;2023-05-15T02:46:20;27.87;;;20.33;;
11048;SDS011;5577;42.706;23.160;2023-05-15T02:49:04;29.70;;;21.20;;
11048;SDS011;5577;42.706;23.160;2023-05-15T02:51:48;33.90;;;21.27;;
11048;SDS011;5577;42.706;23.160;2023-05-15T02:54:32;30.97;;;21.70;;
11048;SDS011;5577;42.706;23.160;2023-05-15T02:57:16;32.23;;;21.87;;
11048;SDS011;5577;42.706;23.160;2023-05-15T02:59:59;32.13;;;21.10;;
11048;SDS011;5577;42.706;23.160;2023-05-15T03:02:43;36.37;;;21.77;;
11048;SDS011;5577;42.706;23.160;2023-05-15T03:05:27;32.77;;;20.53;;
11048;SDS011;5577;42.706;23.160;2023-05-15T03:08:11;42.13;;;22.50;;
11048;SDS011;5577;42.706;23.160;2023-05-15T03:10:55;30.77;;;20.87;;
11048;SDS011;5577;42.706;23.160;2023-05-15T03:13:39;33.93;;;22.20;;
11048;SDS011;5577;42.706;23.160;2023-05-15T03:16:23;35.37;;;23.13;;
11048;SDS011;5577;42.706;23.160;2023-05-15T03:19:07;37.33;;;23.07;;
11048;SDS011;5577;42.706;23.160;2023-05-15T03:21:51;34.10;;;20.90;;
11048;SDS011;5577;42.706;23.160;2023-05-15T03:24:35;33.67;;;22.13;;
11048;SDS011;5577;42.706;23.160;2023-05-15T03:27:18;35.10;;;22.63;;
11048;SDS011;5577;42.706;23.160;2023-05-15T03:30:04;31.43;;;21.77;;
11048;SDS011;5577;42.706;23.160;2023-05-15T03:32:48;36.30;;;22.70;;
11048;SDS011;5577;42.706;23.160;2023-05-15T03:35:32;38.90;;;21.83;;
11048;SDS011;5577;42.706;23.160;2023-05-15T03:38:16;49.30;;;23.17;;
11048;SDS011;5577;42.706;23.160;2023-05-15T03:41:00;40.83;;;23.53;;
11048;SDS011;5577;42.706;23.160;2023-05-15T03:43:43;40.97;;;23.43;;
11048;SDS011;5577;42.706;23.160;2023-05-15T03:46:27;39.50;;;22.90;;
11048;SDS011;5577;42.706;23.160;2023-05-15T03:49:11;40.27;;;23.37;;
11048;SDS011;5577;42.706;23.160;2023-05-15T03:51:55;39.43;;;23.10;;
11048;SDS011;5577;42.706;23.160;2023-05-15T03:54:40;43.20;;;24.17;;
11048;SDS011;5577;42.706;23.160;2023-05-15T03:57:24;39.63;;;23.50;;
11048;SDS011;5577;42.706;23.160;2023-05-15T04:00:08;35.93;;;22.83;;
11048;SDS011;5577;42.706;23.160;2023-05-15T04:02:53;32.23;;;23.20;;
11048;SDS011;5577;42.706;23.160;2023-05-15T04:05:37;34.30;;;24.73;;
11048;SDS011;5577;42.706;23.160;2023-05-15T04:08:21;40.03;;;24.30;;
11048;SDS011;5577;42.706;23.160;2023-05-15T04:11:05;34.30;;;22.90;;
11048;SDS011;5577;42.706;23.160;2023-05-15T04:13:49;33.90;;;24.00;;
11048;SDS011;5577;42.706;23.160;2023-05-15T04:16:33;35.87;;;23.90;;
11048;SDS011;5577;42.706;23.160;2023-05-15T04:19:17;36.30;;;23.37;;
11048;SDS011;5577;42.706;23.160;2023-05-15T04:22:01;35.83;;;24.73;;
11048;SDS011;5577;42.706;23.160;2023-05-15T04:24:45;33.50;;;23.43;;
11048;SDS011;5577;42.706;23.160;2023-05-15T04:27:29;35.10;;;23.53;;
11048;SDS011;5577;42.706;23.160;2023-05-15T04:30:13;39.00;;;25.93;;
11048;SDS011;5577;42.706;23.160;2023-05-15T04:32:57;37.93;;;25.53;;
11048;SDS011;5577;42.706;23.160;2023-05-15T04:35:41;41.83;;;24.93;;
11048;SDS011;5577;42.706;23.160;2023-05-15T04:38:25;41.57;;;26.00;;
11048;SDS011;5577;42.706;23.160;2023-05-15T04:41:09;40.17;;;23.83;;
11048;SDS011;5577;42.706;23.160;2023-05-15T04:43:53;39.63;;;24.70;;
11048;SDS011;5577;42.706;23.160;2023-05-15T04:46:37;41.00;;;23.77;;
11048;SDS011;5577;42.706;23.160;2023-05-15T04:49:22;41.30;;;23.80;;
11048;SDS011;5577;42.706;23.160;2023-05-15T04:52:05;41.43;;;24.80;;
11048;SDS011;5577;42.706;23.160;2023-05-15T04:54:50;38.70;;;24.73;;
11048;SDS011;5577;42.706;23.160;2023-05-15T04:57:35;39.43;;;23.00;;
11048;SDS011;5577;42.706;23.160;2023-05-15T05:00:19;39.30;;;23.30;;
11048;SDS011;5577;42.706;23.160;2023-05-15T05:03:03;39.03;;;23.70;;
11048;SDS011;5577;42.706;23.160;2023-05-15T05:05:47;41.97;;;24.70;;
11048;SDS011;5577;42.706;23.160;2023-05-15T05:08:31;37.97;;;23.20;;
11048;SDS011;5577;42.706;23.160;2023-05-15T05:11:15;36.83;;;21.73;;
11048;SDS011;5577;42.706;23.160;2023-05-15T05:13:59;36.80;;;21.93;;
11048;SDS011;5577;42.706;23.160;2023-05-15T05:16:46;34.60;;;22.30;;
11048;SDS011;5577;42.706;23.160;2023-05-15T05:26:30;37.33;;;23.43;;
11048;SDS011;5577;42.706;23.160;2023-05-15T05:29:13;34.63;;;22.70;;
11048;SDS011;5577;42.706;23.160;2023-05-15T05:45:40;35.07;;;22.50;;
11048;SDS011;5577;42.706;23.160;2023-05-15T05:48:24;33.20;;;22.37;;
11048;SDS011;5577;42.706;23.160;2023-05-15T05:51:09;30.17;;;22.43;;
11048;SDS011;5577;42.706;23.160;2023-05-15T05:53:53;30.43;;;23.47;;
11048;SDS011;5577;42.706;23.160;2023-05-15T05:56:37;28.73;;;22.97;;
11048;SDS011;5577;42.706;23.160;2023-05-15T05:59:21;31.07;;;23.63;;
11048;SDS011;5577;42.706;23.160;2023-05-15T06:02:04;29.73;;;22.77;;
11048;SDS011;5577;42.706;23.160;2023-05-15T06:04:48;31.37;;;22.50;;
11048;SDS011;5577;42.706;23.160;2023-05-15T06:07:33;28.40;;;22.20;;
11048;SDS011;5577;42.706;23.160;2023-05-15T06:10:17;25.70;;;21.17;;
11048;SDS011;5577;42.706;23.160;2023-05-15T06:13:01;28.57;;;22.53;;
11048;SDS011;5577;42.706;23.160;2023-05-15T06:15:45;28.33;;;23.17;;
11048;SDS011;5577;42.706;23.160;2023-05-15T06:18:29;30.40;;;24.77;;
11048;SDS011;5577;42.706;23.160;2023-05-15T06:21:13;27.60;;;22.03;;
11048;SDS011;5577;42.706;23.160;2023-05-15T06:23:57;27.17;;;21.00;;
11048;SDS011;5577;42.706;23.160;2023-05-15T06:26:41;21.60;;;17.47;;
11048;SDS011;5577;42.706;23.160;2023-05-15T06:29:25;19.77;;;16.97;;
11048;SDS011;5577;42.706;23.160;2023-05-15T06:32:09;18.33;;;15.93;;
11048;SDS011;5577;42.706;23.160;2023-05-15T06:34:53;20.00;;;17.40;;
11048;SDS011;5577;42.706;23.160;2023-05-15T06:37:37;19.00;;;16.90;;
11048;SDS011;5577;42.706;23.160;2023-05-15T06:40:21;20.80;;;18.00;;
11048;SDS011;5577;42.706;23.160;2023-05-15T06:43:05;21.30;;;17.70;;
11048;SDS011;5577;42.706;23.160;2023-05-15T06:45:49;20.57;;;17.27;;
11048;SDS011;5577;42.706;23.160;2023-05-15T06:48:33;21.40;;;17.17;;
11048;SDS011;5577;42.706;23.160;2023-05-15T06:51:17;21.77;;;17.00;;
11048;SDS011;5577;42.706;23.160;2023-05-15T06:54:01;20.47;;;17.60;;
11048;SDS011;5577;42.706;23.160;2023-05-15T06:56:45;20.13;;;17.93;;
11048;SDS011;5577;42.706;23.160;2023-05-15T06:59:29;20.40;;;17.07;;
11048;SDS011;5577;42.706;23.160;2023-05-15T07:02:13;19.10;;;17.03;;
11048;SDS011;5577;42.706;23.160;2023-05-15T07:04:57;20.77;;;16.50;;
11048;SDS011;5577;42.706;23.160;2023-05-15T07:07:41;18.77;;;16.37;;
11048;SDS011;5577;42.706;23.160;2023-05-15T07:10:25;20.97;;;16.17;;
11048;SDS011;5577;42.706;23.160;2023-05-15T07:13:09;18.03;;;16.10;;
11048;SDS011;5577;42.706;23.160;2023-05-15T07:19:17;17.00;;;15.13;;
11048;SDS011;5577;42.706;23.160;2023-05-15T07:22:04;19.67;;;16.40;;
11048;SDS011;5577;42.706;23.160;2023-05-15T07:24:48;18.23;;;15.70;;
11048;SDS011;5577;42.706;23.160;2023-05-15T07:27:32;18.87;;;15.37;;
11048;SDS011;5577;42.706;23.160;2023-05-15T07:30:16;19.97;;;16.73;;
11048;SDS011;5577;42.706;23.160;2023-05-15T07:33:00;20.67;;;15.73;;
11048;SDS011;5577;42.706;23.160;2023-05-15T07:35:44;24.63;;;18.67;;
11048;SDS011;5577;42.706;23.160;2023-05-15T07:38:28;27.03;;;19.80;;
11048;SDS011;5577;42.706;23.160;2023-05-15T07:41:12;25.77;;;19.87;;
11048;SDS011;5577;42.706;23.160;2023-05-15T07:43:56;28.90;;;22.27;;
11048;SDS011;5577;42.706;23.160;2023-05-15T07:46:40;30.57;;;22.50;;
11048;SDS011;5577;42.706;23.160;2023-05-15T07:49:24;27.67;;;22.53;;
11048;SDS011;5577;42.706;23.160;2023-05-15T07:52:08;30.17;;;22.20;;
11048;SDS011;5577;42.706;23.160;2023-05-15T07:54:52;24.93;;;19.67;;
11048;SDS011;5577;42.706;23.160;2023-05-15T07:57:36;26.83;;;18.23;;
11048;SDS011;5577;42.706;23.160;2023-05-15T08:00:20;23.00;;;18.10;;
11048;SDS011;5577;42.706;23.160;2023-05-15T08:03:04;24.60;;;18.70;;
11048;SDS011;5577;42.706;23.160;2023-05-15T08:05:48;28.17;;;18.70;;
11048;SDS011;5577;42.706;23.160;2023-05-15T08:08:32;25.13;;;17.40;;
11048;SDS011;5577;42.706;23.160;2023-05-15T08:11:17;23.10;;;16.10;;
11048;SDS011;5577;42.706;23.160;2023-05-15T08:14:01;25.60;;;15.80;;
11048;SDS011;5577;42.706;23.160;2023-05-15T08:16:45;21.40;;;15.77;;
11048;SDS011;5577;42.706;23.160;2023-05-15T08:19:29;21.77;;;16.43;;
11048;SDS011;5577;42.706;23.160;2023-05-15T08:22:13;23.30;;;16.43;;
11048;SDS011;5577;42.706;23.160;2023-05-15T08:24:57;21.67;;;15.83;;
11048;SDS011;5577;42.706;23.160;2023-05-15T08:27:42;23.83;;;17.10;;
11048;SDS011;5577;42.706;23.160;2023-05-15T08:30:26;22.27;;;16.27;;
11048;SDS011;5577;42.706;23.160;2023-05-15T08:33:10;22.67;;;16.00;;
11048;SDS011;5577;42.706;23.160;2023-05-15T08:35:54;26.03;;;16.47;;
11048;SDS011;5577;42.706;23.160;2023-05-15T08:38:38;23.77;;;16.93;;
11048;SDS011;5577;42.706;23.160;2023-05-15T08:41:24;24.13;;;16.90;;
11048;SDS011;5577;42.706;23.160;2023-05-15T08:44:10;24.00;;;16.97;;
11048;SDS011;5577;42.706;23.160;2023-05-15T08:46:56;22.70;;;17.13;;
11048;SDS011;5577;42.706;23.160;2023-05-15T08:52:33;25.77;;;18.30;;
11048;SDS011;5577;42.706;23.160;2023-05-15T08:55:17;26.73;;;19.10;;
11048;SDS011;5577;42.706;23.160;2023-05-15T08:58:01;27.43;;;19.60;;
11048;SDS011;5577;42.706;23.160;2023-05-15T09:00:45;34.03;;;19.80;;
11048;SDS011;5577;42.706;23.160;2023-05-15T09:03:30;29.77;;;19.93;;
11048;SDS011;5577;42.706;23.160;2023-05-15T09:06:14;29.07;;;20.23;;
11048;SDS011;5577;42.706;23.160;2023-05-15T09:08:58;31.33;;;22.07;;
11048;SDS011;5577;42.706;23.160;2023-05-15T09:11:44;32.10;;;21.83;;
11048;SDS011;5577;42.706;23.160;2023-05-15T09:14:28;31.37;;;21.90;;
11048;SDS011;5577;42.706;23.160;2023-05-15T09:17:12;31.70;;;21.47;;
11048;SDS011;5577;42.706;23.160;2023-05-15T09:19:56;27.93;;;21.10;;
11048;SDS011;5577;42.706;23.160;2023-05-15T09:22:40;28.50;;;20.60;;
11048;SDS011;5577;42.706;23.160;2023-05-15T09:25:34;29.87;;;21.33;;
11048;SDS011;5577;42.706;23.160;2023-05-15T09:28:51;30.73;;;21.97;;
11048;SDS011;5577;42.706;23.160;2023-05-15T09:31:28;29.47;;;20.80;;
11048;SDS011;5577;42.706;23.160;2023-05-15T09:34:13;33.60;;;22.00;;
11048;SDS011;5577;42.706;23.160;2023-05-15T09:36:57;35.17;;;22.50;;
11048;SDS011;5577;42.706;23.160;2023-05-15T09:39:41;34.60;;;22.33;;
11048;SDS011;5577;42.706;23.160;2023-05-15T09:42:26;27.97;;;20.43;;
11048;SDS011;5577;42.706;23.160;2023-05-15T09:45:15;29.03;;;20.90;;
11048;SDS011;5577;42.706;23.160;2023-05-15T09:48:03;29.03;;;20.50;;
11048;SDS011;5577;42.706;23.160;2023-05-15T09:50:47;28.30;;;19.97;;
11048;SDS011;5577;42.706;23.160;2023-05-15T09:53:31;28.30;;;20.30;;
11048;SDS011;5577;42.706;23.160;2023-05-15T09:56:16;26.87;;;18.53;;
11048;SDS011;5577;42.706;23.160;2023-05-15T09:59:00;24.57;;;17.73;;
11048;SDS011;5577;42.706;23.160;2023-05-15T10:01:44;23.43;;;17.83;;
11048;SDS011;5577;42.706;23.160;2023-05-15T10:04:32;24.63;;;17.97;;
11048;SDS011;5577;42.706;23.160;2023-05-15T10:07:18;29.23;;;19.37;;
11048;SDS011;5577;42.706;23.160;2023-05-15T10:10:09;24.13;;;17.87;;
11048;SDS011;5577;42.706;23.160;2023-05-15T10:12:54;26.63;;;18.37;;
11048;SDS011;5577;42.706;23.160;2023-05-15T10:15:38;24.53;;;18.77;;
11048;SDS011;5577;42.706;23.160;2023-05-15T10:18:22;32.17;;;22.30;;
11048;SDS011;5577;42.706;23.160;2023-05-15T10:21:08;25.43;;;18.23;;
11048;SDS011;5577;42.706;23.160;2023-05-15T10:23:53;24.77;;;18.40;;
11048;SDS011;5577;42.706;23.160;2023-05-15T10:26:37;31.50;;;20.77;;
11048;SDS011;5577;42.706;23.160;2023-05-15T10:29:22;29.90;;;20.20;;
11048;SDS011;5577;42.706;23.160;2023-05-15T10:32:08;41.17;;;28.17;;
11048;SDS011;5577;42.706;23.160;2023-05-15T10:34:52;28.67;;;21.67;;
11048;SDS011;5577;42.706;23.160;2023-05-15T10:37:40;26.83;;;18.70;;
11048;SDS011;5577;42.706;23.160;2023-05-15T10:40:24;23.73;;;17.13;;
11048;SDS011;5577;42.706;23.160;2023-05-15T10:43:09;26.67;;;18.80;;
11048;SDS011;5577;42.706;23.160;2023-05-15T10:45:54;22.23;;;17.10;;
11048;SDS011;5577;42.706;23.160;2023-05-15T10:48:39;27.00;;;17.80;;
11048;SDS011;5577;42.706;23.160;2023-05-15T10:51:24;27.10;;;18.50;;
11048;SDS011;5577;42.706;23.160;2023-05-15T10:54:08;26.80;;;18.83;;
11048;SDS011;5577;42.706;23.160;2023-05-15T10:56:54;23.40;;;17.90;;
11048;SDS011;5577;42.706;23.160;2023-05-15T10:59:38;26.67;;;18.73;;
11048;SDS011;5577;42.706;23.160;2023-05-15T11:02:25;23.50;;;18.23;;
11048;SDS011;5577;42.706;23.160;2023-05-15T11:05:09;23.40;;;17.67;;
11048;SDS011;5577;42.706;23.160;2023-05-15T11:08:28;23.17;;;17.27;;
11048;SDS011;5577;42.706;23.160;2023-05-15T11:11:05;25.10;;;18.10;;
11048;SDS011;5577;42.706;23.160;2023-05-15T11:19:38;21.40;;;16.43;;
11048;SDS011;5577;42.706;23.160;2023-05-15T11:25:09;23.00;;;17.33;;
11048;SDS011;5577;42.706;23.160;2023-05-15T11:27:56;25.20;;;18.33;;
11048;SDS011;5577;42.706;23.160;2023-05-15T11:30:40;22.37;;;17.40;;
11048;SDS011;5577;42.706;23.160;2023-05-15T11:33:28;25.73;;;17.17;;
11048;SDS011;5577;42.706;23.160;2023-05-15T11:36:12;23.37;;;17.73;;
11048;SDS011;5577;42.706;23.160;2023-05-15T11:38:58;22.23;;;16.67;;
11048;SDS011;5577;42.706;23.160;2023-05-15T11:41:42;21.23;;;16.00;;
11048;SDS011;5577;42.706;23.160;2023-05-15T11:44:26;20.30;;;15.83;;
11048;SDS011;5577;42.706;23.160;2023-05-15T11:47:10;19.33;;;16.57;;
11048;SDS011;5577;42.706;23.160;2023-05-15T11:49:54;22.33;;;17.23;;
11048;SDS011;5577;42.706;23.160;2023-05-15T11:52:38;22.53;;;16.33;;
11048;SDS011;5577;42.706;23.160;2023-05-15T11:55:21;22.87;;;17.17;;
11048;SDS011;5577;42.706;23.160;2023-05-15T11:58:15;24.43;;;17.03;;
11048;SDS011;5577;42.706;23.160;2023-05-15T12:01:00;21.50;;;15.67;;
11048;SDS011;5577;42.706;23.160;2023-05-15T12:03:45;23.77;;;17.10;;
11048;SDS011;5577;42.706;23.160;2023-05-15T12:06:29;22.93;;;14.97;;
11048;SDS011;5577;42.706;23.160;2023-05-15T12:09:14;20.30;;;14.57;;
11048;SDS011;5577;42.706;23.160;2023-05-15T12:11:59;20.47;;;15.17;;
11048;SDS011;5577;42.706;23.160;2023-05-15T12:14:43;19.57;;;14.30;;
11048;SDS011;5577;42.706;23.160;2023-05-15T12:17:27;19.63;;;15.20;;
11048;SDS011;5577;42.706;23.160;2023-05-15T12:20:20;21.27;;;16.03;;
11048;SDS011;5577;42.706;23.160;2023-05-15T12:23:04;21.70;;;15.30;;
11048;SDS011;5577;42.706;23.160;2023-05-15T12:25:49;20.07;;;14.23;;
11048;SDS011;5577;42.706;23.160;2023-05-15T12:28:34;21.07;;;16.13;;
11048;SDS011;5577;42.706;23.160;2023-05-15T12:31:18;21.30;;;16.13;;
11048;SDS011;5577;42.706;23.160;2023-05-15T12:34:02;23.40;;;16.17;;
11048;SDS011;5577;42.706;23.160;2023-05-15T12:36:46;23.77;;;17.37;;
11048;SDS011;5577;42.706;23.160;2023-05-15T12:39:31;22.07;;;17.30;;
11048;SDS011;5577;42.706;23.160;2023-05-15T12:42:15;18.77;;;16.27;;
11048;SDS011;5577;42.706;23.160;2023-05-15T12:44:59;23.20;;;17.07;;
11048;SDS011;5577;42.706;23.160;2023-05-15T12:47:43;20.00;;;15.80;;
11048;SDS011;5577;42.706;23.160;2023-05-15T12:50:30;22.20;;;15.97;;
11048;SDS011;5577;42.706;23.160;2023-05-15T12:53:15;22.93;;;16.20;;
11048;SDS011;5577;42.706;23.160;2023-05-15T12:55:59;17.83;;;15.53;;
11048;SDS011;5577;42.706;23.160;2023-05-15T12:58:43;21.03;;;15.80;;
11048;SDS011;5577;42.706;23.160;2023-05-15T13:01:27;20.00;;;15.30;;
11048;SDS011;5577;42.706;23.160;2023-05-15T13:04:11;18.97;;;15.10;;
11048;SDS011;5577;42.706;23.160;2023-05-15T13:06:55;17.77;;;14.77;;
11048;SDS011;5577;42.706;23.160;2023-05-15T13:09:39;19.43;;;14.90;;
11048;SDS011;5577;42.706;23.160;2023-05-15T13:12:23;20.70;;;14.03;;
11048;SDS011;5577;42.706;23.160;2023-05-15T13:15:07;23.80;;;17.13;;
11048;SDS011;5577;42.706;23.160;2023-05-15T13:18:13;14.63;;;12.57;;
11048;SDS011;5577;42.706;23.160;2023-05-15T13:20:58;12.43;;;10.80;;
11048;SDS011;5577;42.706;23.160;2023-05-15T13:23:42;17.93;;;11.83;;
11048;SDS011;5577;42.706;23.160;2023-05-15T13:26:26;17.70;;;12.90;;
11048;SDS011;5577;42.706;23.160;2023-05-15T13:29:10;16.47;;;11.30;;
11048;SDS011;5577;42.706;23.160;2023-05-15T13:31:54;13.63;;;11.13;;
11048;SDS011;5577;42.706;23.160;2023-05-15T13:34:37;14.87;;;11.47;;
11048;SDS011;5577;42.706;23.160;2023-05-15T13:37:21;15.70;;;11.57;;
11048;SDS011;5577;42.706;23.160;2023-05-15T13:40:09;15.53;;;11.43;;
11048;SDS011;5577;42.706;23.160;2023-05-15T13:42:53;19.93;;;11.23;;
11048;SDS011;5577;42.706;23.160;2023-05-15T13:45:37;15.90;;;12.37;;
11048;SDS011;5577;42.706;23.160;2023-05-15T13:48:21;18.13;;;12.00;;
11048;SDS011;5577;42.706;23.160;2023-05-15T13:51:05;18.33;;;12.13;;
11048;SDS011;5577;42.706;23.160;2023-05-15T13:53:50;19.37;;;12.50;;
11048;SDS011;5577;42.706;23.160;2023-05-15T13:56:33;17.60;;;12.80;;
11048;SDS011;5577;42.706;23.160;2023-05-15T13:59:18;15.80;;;13.10;;
11048;SDS011;5577;42.706;23.160;2023-05-15T14:02:01;17.53;;;12.83;;
11048;SDS011;5577;42.706;23.160;2023-05-15T14:04:46;18.67;;;13.27;;
11048;SDS011;5577;42.706;23.160;2023-05-15T14:07:29;16.87;;;12.87;;
11048;SDS011;5577;42.706;23.160;2023-05-15T14:10:14;15.43;;;12.60;;
11048;SDS011;5577;42.706;23.160;2023-05-15T14:12:58;18.03;;;14.03;;
11048;SDS011;5577;42.706;23.160;2023-05-15T14:15:42;14.63;;;12.77;;
11048;SDS011;5577;42.706;23.160;2023-05-15T14:18:26;15.13;;;13.57;;
11048;SDS011;5577;42.706;23.160;2023-05-15T14:21:10;17.07;;;13.33;;
11048;SDS011;5577;42.706;23.160;2023-05-15T14:23:54;16.67;;;13.23;;
11048;SDS011;5577;42.706;23.160;2023-05-15T14:26:38;17.70;;;12.73;;
11048;SDS011;5577;42.706;23.160;2023-05-15T14:29:22;13.33;;;11.93;;
11048;SDS011;5577;42.706;23.160;2023-05-15T14:32:06;18.07;;;12.73;;
11048;SDS011;5577;42.706;23.160;2023-05-15T14:34:51;15.87;;;12.50;;
11048;SDS011;5577;42.706;23.160;2023-05-15T14:37:35;15.73;;;13.63;;
11048;SDS011;5577;42.706;23.160;2023-05-15T14:40:20;17.60;;;13.30;;
11048;SDS011;5577;42.706;23.160;2023-05-15T14:43:04;20.77;;;13.83;;
11048;SDS011;5577;42.706;23.160;2023-05-15T14:45:48;17.53;;;13.20;;
11048;SDS011;5577;42.706;23.160;2023-05-15T14:48:32;17.57;;;13.53;;
11048;SDS011;5577;42.706;23.160;2023-05-15T14:51:16;16.00;;;13.40;;
11048;SDS011;5577;42.706;23.160;2023-05-15T14:54:00;15.60;;;12.43;;
11048;SDS011;5577;42.706;23.160;2023-05-15T14:56:44;16.57;;;12.37;;
11048;SDS011;5577;42.706;23.160;2023-05-15T14:59:30;14.27;;;11.27;;
11048;SDS011;5577;42.706;23.160;2023-05-15T15:02:14;16.33;;;11.60;;
11048;SDS011;5577;42.706;23.160;2023-05-15T15:04:58;15.13;;;11.03;;
11048;SDS011;5577;42.706;23.160;2023-05-15T15:10:41;15.77;;;10.03;;
11048;SDS011;5577;42.706;23.160;2023-05-15T15:13:26;12.00;;;9.20;;
11048;SDS011;5577;42.706;23.160;2023-05-15T15:16:12;16.87;;;9.50;;
11048;SDS011;5577;42.706;23.160;2023-05-15T15:18:56;12.63;;;9.40;;
11048;SDS011;5577;42.706;23.160;2023-05-15T15:21:39;13.33;;;9.23;;
11048;SDS011;5577;42.706;23.160;2023-05-15T15:24:23;13.17;;;9.83;;
11048;SDS011;5577;42.706;23.160;2023-05-15T15:27:07;14.50;;;9.23;;
11048;SDS011;5577;42.706;23.160;2023-05-15T15:29:51;13.77;;;8.80;;
11048;SDS011;5577;42.706;23.160;2023-05-15T15:32:36;11.33;;;8.40;;
11048;SDS011;5577;42.706;23.160;2023-05-15T15:35:20;13.07;;;8.17;;
11048;SDS011;5577;42.706;23.160;2023-05-15T15:38:04;10.63;;;7.33;;
11048;SDS011;5577;42.706;23.160;2023-05-15T15:40:48;9.90;;;7.33;;
11048;SDS011;5577;42.706;23.160;2023-05-15T15:43:32;12.87;;;7.63;;
11048;SDS011;5577;42.706;23.160;2023-05-15T15:46:16;11.77;;;7.30;;
11048;SDS011;5577;42.706;23.160;2023-05-15T15:48:59;12.17;;;7.17;;
11048;SDS011;5577;42.706;23.160;2023-05-15T15:51:43;9.33;;;7.60;;
11048;SDS011;5577;42.706;23.160;2023-05-15T15:54:27;11.27;;;7.37;;
11048;SDS011;5577;42.706;23.160;2023-05-15T15:57:15;11.77;;;7.63;;
11048;SDS011;5577;42.706;23.160;2023-05-15T15:59:59;8.93;;;7.10;;
11048;SDS011;5577;42.706;23.160;2023-05-15T16:02:43;7.77;;;7.03;;
11048;SDS011;5577;42.706;23.160;2023-05-15T16:05:27;10.73;;;7.17;;
11048;SDS011;5577;42.706;23.160;2023-05-15T16:08:11;10.60;;;7.17;;
11048;SDS011;5577;42.706;23.160;2023-05-15T16:10:55;12.77;;;7.40;;
11048;SDS011;5577;42.706;23.160;2023-05-15T16:13:39;10.47;;;7.50;;
11048;SDS011;5577;42.706;23.160;2023-05-15T16:16:23;11.37;;;7.97;;
11048;SDS011;5577;42.706;23.160;2023-05-15T16:19:07;12.10;;;8.60;;
11048;SDS011;5577;42.706;23.160;2023-05-15T16:21:50;11.83;;;7.93;;
11048;SDS011;5577;42.706;23.160;2023-05-15T16:24:34;12.17;;;7.33;;
11048;SDS011;5577;42.706;23.160;2023-05-15T16:27:19;12.13;;;8.17;;
11048;SDS011;5577;42.706;23.160;2023-05-15T16:30:03;9.67;;;8.03;;
11048;SDS011;5577;42.706;23.160;2023-05-15T16:32:50;14.33;;;8.57;;
11048;SDS011;5577;42.706;23.160;2023-05-15T16:35:34;11.07;;;8.10;;
11048;SDS011;5577;42.706;23.160;2023-05-15T16:38:19;12.27;;;8.50;;
11048;SDS011;5577;42.706;23.160;2023-05-15T16:41:03;11.10;;;8.43;;
11048;SDS011;5577;42.706;23.160;2023-05-15T16:43:47;13.40;;;9.87;;
11048;SDS011;5577;42.706;23.160;2023-05-15T16:46:32;13.67;;;9.53;;
11048;SDS011;5577;42.706;23.160;2023-05-15T16:49:17;11.77;;;10.00;;
11048;SDS011;5577;42.706;23.160;2023-05-15T16:52:00;12.00;;;10.27;;
11048;SDS011;5577;42.706;23.160;2023-05-15T16:54:44;15.07;;;10.83;;